General Aviation Weather

Text Reports

Enter one or more of the following location identifiers separated by a space:

Zip Code, Four-Character ICAO or Three-Character IATA airport codes.

METAR - Aviation Routine Weather Report
KSGT - Stuttgart, Arkansas
Updated at 6:15 PM GMT on April 17, 2014 (1:15 PM CDT):
METAR KSGT 171815Z AUTO 10009KT 090V150 10SM CLR 19/04 A3024 RMK AO1
TAF - Terminal Area Forecast
KSGT - Stuttgart, Arkansas
Updated at 6:15 PM GMT on April 17, 2014 (1:15 PM CDT):
No TAF is currently available for this location.
Decoded:
No decoded TAF is available.
PIREP - Pilot Weather Report
KSGT - Stuttgart, Arkansas
Updated at 6:15 PM GMT on April 17, 2014 (1:15 PM CDT):
No PIREP is currently available for this location.
AIRMET - Airmens Meteorological Information
KSGT - Stuttgart, Arkansas
Updated at 6:15 PM GMT on April 17, 2014 (1:15 PM CDT):
No AIRMET is currently available for this location.
SIGMET - Significant Meteorological Information
KSGT - Stuttgart, Arkansas
Updated at 6:15 PM GMT on April 17, 2014 (1:15 PM CDT):
No SIGMET is currently available for this location.
NOTAM - Notice to Airmen
KSGT - Stuttgart, Arkansas
Updated at 6:15 PM GMT on April 17, 2014 (1:15 PM CDT):
No NOTAM is currently available for this location.
Forecast Area
KSGT - Stuttgart, Arkansas
Updated at 6:15 PM GMT on April 17, 2014 (1:15 PM CDT):
No NOTAM is currently available for this location.
Aviation Weather Maps